sensor_id;sensor_type;location;lat;lon;timestamp;pressure;altitude;pressure_sealevel;temperature;humidity
42671;BME280;28283;55.426;37.756;2023-02-28T00:03:04;99854.19;;;-7.56;80.81
42671;BME280;28283;55.426;37.756;2023-02-28T00:08:06;99891.31;;;-7.32;80.39
42671;BME280;28283;55.426;37.756;2023-02-28T00:13:06;99867.81;;;-7.50;80.40
42671;BME280;28283;55.426;37.756;2023-02-28T00:18:07;99868.75;;;-7.33;79.91
42671;BME280;28283;55.426;37.756;2023-02-28T00:23:08;99871.56;;;-7.55;80.90
42671;BME280;28283;55.426;37.756;2023-02-28T00:28:08;99851.34;;;-7.69;81.20
42671;BME280;28283;55.426;37.756;2023-02-28T00:33:09;99856.88;;;-7.58;79.97
42671;BME280;28283;55.426;37.756;2023-02-28T00:38:10;99837.75;;;-7.58;80.94
42671;BME280;28283;55.426;37.756;2023-02-28T00:43:10;99857.94;;;-7.62;79.60
42671;BME280;28283;55.426;37.756;2023-02-28T00:48:11;99808.81;;;-7.90;80.55
42671;BME280;28283;55.426;37.756;2023-02-28T00:53:12;99838.78;;;-7.80;80.37
42671;BME280;28283;55.426;37.756;2023-02-28T00:58:12;99830.66;;;-7.74;79.83
42671;BME280;28283;55.426;37.756;2023-02-28T01:03:13;99795.06;;;-7.75;80.79
42671;BME280;28283;55.426;37.756;2023-02-28T01:08:14;99818.69;;;-7.78;80.41
42671;BME280;28283;55.426;37.756;2023-02-28T01:13:15;99806.97;;;-7.88;80.88
42671;BME280;28283;55.426;37.756;2023-02-28T01:18:16;99821.72;;;-7.87;80.71
42671;BME280;28283;55.426;37.756;2023-02-28T01:23:17;99808.97;;;-7.93;81.62
42671;BME280;28283;55.426;37.756;2023-02-28T01:28:17;99812.94;;;-8.22;82.27
42671;BME280;28283;55.426;37.756;2023-02-28T01:33:18;99732.81;;;-8.38;82.20
42671;BME280;28283;55.426;37.756;2023-02-28T01:38:19;99775.47;;;-8.02;81.04
42671;BME280;28283;55.426;37.756;2023-02-28T01:43:30;99759.03;;;-8.41;82.37
42671;BME280;28283;55.426;37.756;2023-02-28T01:48:32;99795.25;;;-8.16;81.31
42671;BME280;28283;55.426;37.756;2023-02-28T01:53:44;99777.56;;;-7.92;81.62
42671;BME280;28283;55.426;37.756;2023-02-28T01:58:49;99739.41;;;-8.12;80.70
42671;BME280;28283;55.426;37.756;2023-02-28T02:03:53;99773.19;;;-8.09;82.79
42671;BME280;28283;55.426;37.756;2023-02-28T02:08:56;99753.56;;;-7.98;81.80
42671;BME280;28283;55.426;37.756;2023-02-28T02:35:31;99703.91;;;-7.79;81.61
42671;BME280;28283;55.426;37.756;2023-02-28T02:40:57;99712.84;;;-7.83;81.79
42671;BME280;28283;55.426;37.756;2023-02-28T02:46:03;99689.22;;;-8.17;82.07
42671;BME280;28283;55.426;37.756;2023-02-28T02:51:24;99658.47;;;-8.10;80.67
42671;BME280;28283;55.426;37.756;2023-02-28T02:56:28;99697.91;;;-8.16;80.94
42671;BME280;28283;55.426;37.756;2023-02-28T03:01:31;99686.41;;;-8.12;82.45
42671;BME280;28283;55.426;37.756;2023-02-28T03:06:33;99679.91;;;-8.03;80.80
42671;BME280;28283;55.426;37.756;2023-02-28T03:11:35;99660.78;;;-8.04;82.16
42671;BME280;28283;55.426;37.756;2023-02-28T03:27:49;99644.56;;;-8.28;81.97
42671;BME280;28283;55.426;37.756;2023-02-28T03:33:00;99633.56;;;-7.98;81.63
42671;BME280;28283;55.426;37.756;2023-02-28T03:38:18;99597.41;;;-8.41;81.81
42671;BME280;28283;55.426;37.756;2023-02-28T03:43:28;99598.09;;;-8.20;80.97
42671;BME280;28283;55.426;37.756;2023-02-28T03:49:11;99605.31;;;-8.25;81.37
42671;BME280;28283;55.426;37.756;2023-02-28T03:54:12;99561.88;;;-8.26;82.12
42671;BME280;28283;55.426;37.756;2023-02-28T03:59:33;99587.91;;;-8.25;80.92
42671;BME280;28283;55.426;37.756;2023-02-28T04:04:35;99585.38;;;-8.43;81.66
42671;BME280;28283;55.426;37.756;2023-02-28T04:09:36;99582.06;;;-8.47;82.48
42671;BME280;28283;55.426;37.756;2023-02-28T04:14:37;99567.56;;;-8.53;81.95
42671;BME280;28283;55.426;37.756;2023-02-28T04:19:37;99555.16;;;-8.30;81.21
42671;BME280;28283;55.426;37.756;2023-02-28T04:24:38;99514.81;;;-8.58;81.86
42671;BME280;28283;55.426;37.756;2023-02-28T04:29:41;99543.34;;;-8.37;81.15
42671;BME280;28283;55.426;37.756;2023-02-28T04:34:44;99544.09;;;-8.35;81.40
42671;BME280;28283;55.426;37.756;2023-02-28T04:39:45;99504.16;;;-8.36;80.51
42671;BME280;28283;55.426;37.756;2023-02-28T04:44:46;99507.41;;;-8.15;80.55
42671;BME280;28283;55.426;37.756;2023-02-28T04:49:47;99516.19;;;-8.33;81.56
42671;BME280;28283;55.426;37.756;2023-02-28T04:54:48;99494.69;;;-8.21;79.82
42671;BME280;28283;55.426;37.756;2023-02-28T04:59:49;99502.94;;;-7.95;79.56
42671;BME280;28283;55.426;37.756;2023-02-28T05:04:50;99481.31;;;-7.97;78.64
42671;BME280;28283;55.426;37.756;2023-02-28T05:09:50;99491.59;;;-7.94;78.08
42671;BME280;28283;55.426;37.756;2023-02-28T05:14:51;99481.41;;;-7.83;77.36
42671;BME280;28283;55.426;37.756;2023-02-28T05:19:52;99465.72;;;-7.99;78.73
42671;BME280;28283;55.426;37.756;2023-02-28T05:24:53;99421.34;;;-8.15;77.79
42671;BME280;28283;55.426;37.756;2023-02-28T05:29:53;99434.13;;;-7.93;78.06
42671;BME280;28283;55.426;37.756;2023-02-28T05:34:54;99449.53;;;-7.56;77.89
42671;BME280;28283;55.426;37.756;2023-02-28T05:39:54;99423.66;;;-7.29;76.40
42671;BME280;28283;55.426;37.756;2023-02-28T05:44:55;99414.91;;;-7.12;74.77
42671;BME280;28283;55.426;37.756;2023-02-28T05:49:56;99373.84;;;-7.72;75.20
42671;BME280;28283;55.426;37.756;2023-02-28T05:54:56;99363.97;;;-7.51;75.09
42671;BME280;28283;55.426;37.756;2023-02-28T05:59:57;99386.56;;;-7.20;74.60
42671;BME280;28283;55.426;37.756;2023-02-28T06:04:57;99374.19;;;-7.16;74.05
42671;BME280;28283;55.426;37.756;2023-02-28T06:09:58;99365.88;;;-7.23;74.18
42671;BME280;28283;55.426;37.756;2023-02-28T06:14:59;99354.31;;;-6.74;71.20
42671;BME280;28283;55.426;37.756;2023-02-28T06:20:00;99308.00;;;-6.86;71.78
42671;BME280;28283;55.426;37.756;2023-02-28T06:25:00;99338.00;;;-6.49;70.46
42671;BME280;28283;55.426;37.756;2023-02-28T06:30:02;99296.00;;;-6.46;69.67
42671;BME280;28283;55.426;37.756;2023-02-28T06:35:03;99275.97;;;-6.32;68.67
42671;BME280;28283;55.426;37.756;2023-02-28T06:40:04;99299.22;;;-6.13;67.54
42671;BME280;28283;55.426;37.756;2023-02-28T06:45:07;99252.72;;;-5.83;65.86
42671;BME280;28283;55.426;37.756;2023-02-28T06:50:11;99265.75;;;-5.68;64.36
42671;BME280;28283;55.426;37.756;2023-02-28T06:55:12;99236.47;;;-5.88;65.53
42671;BME280;28283;55.426;37.756;2023-02-28T07:00:14;99257.22;;;-5.45;64.02
42671;BME280;28283;55.426;37.756;2023-02-28T07:05:15;99255.44;;;-5.44;63.99
42671;BME280;28283;55.426;37.756;2023-02-28T07:10:19;99212.38;;;-5.53;63.24
42671;BME280;28283;55.426;37.756;2023-02-28T07:15:20;99162.00;;;-5.31;63.89
42671;BME280;28283;55.426;37.756;2023-02-28T07:20:21;99202.97;;;-5.17;62.82
42671;BME280;28283;55.426;37.756;2023-02-28T07:25:23;99207.81;;;-5.11;62.59
42671;BME280;28283;55.426;37.756;2023-02-28T07:30:24;99186.63;;;-4.95;62.96
42671;BME280;28283;55.426;37.756;2023-02-28T07:35:24;99155.69;;;-4.90;62.32
42671;BME280;28283;55.426;37.756;2023-02-28T07:40:25;99141.41;;;-4.86;62.27
42671;BME280;28283;55.426;37.756;2023-02-28T07:45:27;99149.03;;;-4.46;61.88
42671;BME280;28283;55.426;37.756;2023-02-28T07:50:30;99138.69;;;-4.23;61.29
42671;BME280;28283;55.426;37.756;2023-02-28T07:55:31;99135.19;;;-4.24;61.56
42671;BME280;28283;55.426;37.756;2023-02-28T08:00:32;99060.91;;;-4.48;61.28
42671;BME280;28283;55.426;37.756;2023-02-28T08:05:32;99104.75;;;-4.02;61.58
42671;BME280;28283;55.426;37.756;2023-02-28T08:10:33;99101.19;;;-3.90;61.46
42671;BME280;28283;55.426;37.756;2023-02-28T08:15:34;99084.13;;;-3.95;62.75
42671;BME280;28283;55.426;37.756;2023-02-28T08:20:34;99090.88;;;-3.69;63.18
42671;BME280;28283;55.426;37.756;2023-02-28T08:25:35;99053.25;;;-3.47;63.02
42671;BME280;28283;55.426;37.756;2023-02-28T08:30:35;99049.56;;;-3.55;63.08
42671;BME280;28283;55.426;37.756;2023-02-28T08:35:36;99065.31;;;-3.55;63.85
42671;BME280;28283;55.426;37.756;2023-02-28T08:40:37;99074.19;;;-3.34;63.33
42671;BME280;28283;55.426;37.756;2023-02-28T08:45:38;99064.97;;;-3.05;63.18
42671;BME280;28283;55.426;37.756;2023-02-28T08:50:39;99031.50;;;-3.15;63.82
42671;BME280;28283;55.426;37.756;2023-02-28T08:55:39;99013.31;;;-2.95;63.33
42671;BME280;28283;55.426;37.756;2023-02-28T09:00:43;98976.41;;;-3.05;62.53
42671;BME280;28283;55.426;37.756;2023-02-28T09:05:53;99000.22;;;-2.74;62.93
42671;BME280;28283;55.426;37.756;2023-02-28T09:10:54;98979.78;;;-2.82;63.60
42671;BME280;28283;55.426;37.756;2023-02-28T09:15:59;99006.66;;;-2.35;62.28
42671;BME280;28283;55.426;37.756;2023-02-28T09:21:03;99018.59;;;-2.09;61.43
42671;BME280;28283;55.426;37.756;2023-02-28T09:26:05;99023.75;;;-2.08;61.85
42671;BME280;28283;55.426;37.756;2023-02-28T09:31:06;98989.38;;;-2.27;62.36
42671;BME280;28283;55.426;37.756;2023-02-28T09:36:07;99011.59;;;-2.20;63.03
42671;BME280;28283;55.426;37.756;2023-02-28T09:41:16;98974.94;;;-2.33;62.83
42671;BME280;28283;55.426;37.756;2023-02-28T09:52:00;98958.09;;;-2.21;63.79
42671;BME280;28283;55.426;37.756;2023-02-28T10:02:40;98941.44;;;-2.00;64.69
42671;BME280;28283;55.426;37.756;2023-02-28T10:13:05;98934.34;;;-2.09;67.71
42671;BME280;28283;55.426;37.756;2023-02-28T10:18:11;98909.53;;;-2.07;68.01
42671;BME280;28283;55.426;37.756;2023-02-28T10:23:31;98908.09;;;-1.90;67.48
42671;BME280;28283;55.426;37.756;2023-02-28T10:28:32;98897.44;;;-1.79;68.66
42671;BME280;28283;55.426;37.756;2023-02-28T10:33:35;98871.16;;;-2.00;69.54
42671;BME280;28283;55.426;37.756;2023-02-28T10:38:37;98880.44;;;-1.96;70.23
42671;BME280;28283;55.426;37.756;2023-02-28T10:43:40;98845.00;;;-1.92;70.29
42671;BME280;28283;55.426;37.756;2023-02-28T10:48:45;98853.41;;;-2.07;70.16
42671;BME280;28283;55.426;37.756;2023-02-28T10:53:53;98754.88;;;-1.95;70.71
42671;BME280;28283;55.426;37.756;2023-02-28T10:59:02;98849.53;;;-2.03;70.77
42671;BME280;28283;55.426;37.756;2023-02-28T11:04:03;98821.34;;;-2.13;71.12
42671;BME280;28283;55.426;37.756;2023-02-28T11:09:24;98820.19;;;-2.29;72.01
42671;BME280;28283;55.426;37.756;2023-02-28T11:14:51;98848.50;;;-2.12;71.37
42671;BME280;28283;55.426;37.756;2023-02-28T11:19:55;98835.06;;;-2.19;71.56
42671;BME280;28283;55.426;37.756;2023-02-28T11:25:00;98841.28;;;-2.20;71.54
42671;BME280;28283;55.426;37.756;2023-02-28T11:30:02;98821.81;;;-2.38;72.90
42671;BME280;28283;55.426;37.756;2023-02-28T11:40:15;98820.81;;;-2.06;72.16
42671;BME280;28283;55.426;37.756;2023-02-28T11:51:41;98810.63;;;-2.21;74.24
42671;BME280;28283;55.426;37.756;2023-02-28T16:32:14;98566.69;;;-1.54;86.56
42671;BME280;28283;55.426;37.756;2023-02-28T16:37:17;98548.22;;;-1.54;86.68
42671;BME280;28283;55.426;37.756;2023-02-28T16:47:27;98557.09;;;-1.45;86.03
42671;BME280;28283;55.426;37.756;2023-02-28T16:52:28;98551.22;;;-1.39;86.58
42671;BME280;28283;55.426;37.756;2023-02-28T16:57:30;98545.31;;;-1.50;86.33
42671;BME280;28283;55.426;37.756;2023-02-28T17:02:31;98532.06;;;-1.31;86.17
42671;BME280;28283;55.426;37.756;2023-02-28T17:07:32;98500.44;;;-1.31;86.02
42671;BME280;28283;55.426;37.756;2023-02-28T17:12:33;98488.25;;;-1.42;85.81
42671;BME280;28283;55.426;37.756;2023-02-28T17:17:33;98491.78;;;-1.23;86.44
42671;BME280;28283;55.426;37.756;2023-02-28T17:22:34;98495.72;;;-1.37;86.59
42671;BME280;28283;55.426;37.756;2023-02-28T17:27:36;98473.06;;;-1.30;86.88
42671;BME280;28283;55.426;37.756;2023-02-28T17:32:37;98483.66;;;-1.12;86.16
42671;BME280;28283;55.426;37.756;2023-02-28T17:37:38;98492.63;;;-1.05;85.38
42671;BME280;28283;55.426;37.756;2023-02-28T17:42:39;98500.22;;;-1.20;86.13
42671;BME280;28283;55.426;37.756;2023-02-28T17:47:41;98492.78;;;-1.06;85.37
42671;BME280;28283;55.426;37.756;2023-02-28T17:52:44;98466.03;;;-0.93;85.15
42671;BME280;28283;55.426;37.756;2023-02-28T17:57:44;98475.47;;;-0.91;85.12
42671;BME280;28283;55.426;37.756;2023-02-28T18:02:45;98451.59;;;-0.89;85.17
42671;BME280;28283;55.426;37.756;2023-02-28T18:07:46;98511.06;;;-0.95;85.19
42671;BME280;28283;55.426;37.756;2023-02-28T18:12:48;98514.66;;;-0.96;84.62
42671;BME280;28283;55.426;37.756;2023-02-28T18:17:50;98477.19;;;-1.00;83.90
42671;BME280;28283;55.426;37.756;2023-02-28T18:22:51;98442.22;;;-1.20;83.33
42671;BME280;28283;55.426;37.756;2023-02-28T18:27:51;98522.56;;;-0.96;82.99
42671;BME280;28283;55.426;37.756;2023-02-28T18:33:00;98510.53;;;-0.99;83.29
42671;BME280;28283;55.426;37.756;2023-02-28T18:38:13;98503.16;;;-0.95;83.44
42671;BME280;28283;55.426;37.756;2023-02-28T18:43:14;98489.94;;;-1.13;83.27
42671;BME280;28283;55.426;37.756;2023-02-28T18:48:15;98494.50;;;-1.15;82.04
42671;BME280;28283;55.426;37.756;2023-02-28T18:53:18;98554.59;;;-1.46;83.18
42671;BME280;28283;55.426;37.756;2023-02-28T18:58:19;98572.16;;;-1.84;82.48
42671;BME280;28283;55.426;37.756;2023-02-28T19:03:20;98540.31;;;-2.40;80.01
42671;BME280;28283;55.426;37.756;2023-02-28T19:08:21;98560.56;;;-2.40;79.59
42671;BME280;28283;55.426;37.756;2023-02-28T19:13:21;98579.94;;;-2.32;77.51
42671;BME280;28283;55.426;37.756;2023-02-28T19:18:22;98552.03;;;-2.83;78.10
42671;BME280;28283;55.426;37.756;2023-02-28T19:23:22;98513.19;;;-2.60;72.24
42671;BME280;28283;55.426;37.756;2023-02-28T19:28:23;98573.13;;;-2.24;72.68
42671;BME280;28283;55.426;37.756;2023-02-28T19:33:24;98573.00;;;-2.42;70.82
42671;BME280;28283;55.426;37.756;2023-02-28T19:38:24;98578.41;;;-2.15;69.35
42671;BME280;28283;55.426;37.756;2023-02-28T19:43:25;98573.72;;;-2.40;69.76
42671;BME280;28283;55.426;37.756;2023-02-28T19:48:26;98558.28;;;-2.64;69.03
42671;BME280;28283;55.426;37.756;2023-02-28T19:53:31;98537.56;;;-2.19;65.92
42671;BME280;28283;55.426;37.756;2023-02-28T19:58:33;98553.72;;;-2.14;65.19
42671;BME280;28283;55.426;37.756;2023-02-28T20:03:34;98526.41;;;-2.03;62.63
42671;BME280;28283;55.426;37.756;2023-02-28T20:08:35;98541.09;;;-1.90;63.22
42671;BME280;28283;55.426;37.756;2023-02-28T20:13:36;98487.94;;;-2.23;64.06
42671;BME280;28283;55.426;37.756;2023-02-28T20:18:38;98540.28;;;-1.91;65.67
42671;BME280;28283;55.426;37.756;2023-02-28T20:23:40;98550.66;;;-1.89;66.41
42671;BME280;28283;55.426;37.756;2023-02-28T20:28:41;98541.50;;;-1.85;65.82
42671;BME280;28283;55.426;37.756;2023-02-28T20:33:42;98509.75;;;-1.84;64.58
42671;BME280;28283;55.426;37.756;2023-02-28T20:38:43;98537.91;;;-1.84;60.32
42671;BME280;28283;55.426;37.756;2023-02-28T20:43:44;98497.75;;;-2.06;59.51
42671;BME280;28283;55.426;37.756;2023-02-28T20:48:45;98515.72;;;-1.82;56.37
42671;BME280;28283;55.426;37.756;2023-02-28T20:53:46;98508.84;;;-2.02;56.13
42671;BME280;28283;55.426;37.756;2023-02-28T20:58:48;98514.34;;;-1.86;52.16
42671;BME280;28283;55.426;37.756;2023-02-28T21:03:53;98545.56;;;-2.11;53.64
42671;BME280;28283;55.426;37.756;2023-02-28T21:08:54;98506.63;;;-2.26;51.78
42671;BME280;28283;55.426;37.756;2023-02-28T21:13:59;98539.06;;;-2.36;51.11
42671;BME280;28283;55.426;37.756;2023-02-28T21:19:00;98561.78;;;-2.25;50.61
42671;BME280;28283;55.426;37.756;2023-02-28T21:24:04;98493.47;;;-2.26;48.55
42671;BME280;28283;55.426;37.756;2023-02-28T21:29:05;98538.63;;;-2.60;48.49
42671;BME280;28283;55.426;37.756;2023-02-28T21:34:06;98569.53;;;-2.53;49.50
42671;BME280;28283;55.426;37.756;2023-02-28T21:39:21;98579.03;;;-2.81;50.65
42671;BME280;28283;55.426;37.756;2023-02-28T21:44:25;98564.38;;;-2.83;49.13
42671;BME280;28283;55.426;37.756;2023-02-28T21:49:27;98527.25;;;-2.80;49.60
42671;BME280;28283;55.426;37.756;2023-02-28T21:54:28;98578.59;;;-2.86;50.26
42671;BME280;28283;55.426;37.756;2023-02-28T21:59:28;98554.38;;;-2.99;49.58
42671;BME280;28283;55.426;37.756;2023-02-28T22:04:29;98573.59;;;-2.99;50.22
42671;BME280;28283;55.426;37.756;2023-02-28T22:09:30;98531.69;;;-3.41;50.75
42671;BME280;28283;55.426;37.756;2023-02-28T22:14:30;98573.66;;;-3.20;51.33
42671;BME280;28283;55.426;37.756;2023-02-28T22:19:31;98558.44;;;-3.26;51.24
42671;BME280;28283;55.426;37.756;2023-02-28T22:24:31;98569.25;;;-3.19;51.07
42671;BME280;28283;55.426;37.756;2023-02-28T22:29:32;98545.78;;;-3.32;51.68
42671;BME280;28283;55.426;37.756;2023-02-28T22:34:32;98570.44;;;-3.33;51.95
42671;BME280;28283;55.426;37.756;2023-02-28T22:39:33;98553.78;;;-3.74;51.90
42671;BME280;28283;55.426;37.756;2023-02-28T22:44:34;98566.69;;;-3.61;52.59
42671;BME280;28283;55.426;37.756;2023-02-28T22:49:34;98539.06;;;-4.08;52.66
42671;BME280;28283;55.426;37.756;2023-02-28T22:54:35;98562.09;;;-4.11;53.67
42671;BME280;28283;55.426;37.756;2023-02-28T22:59:35;98590.34;;;-3.83;52.35
42671;BME280;28283;55.426;37.756;2023-02-28T23:04:36;98594.19;;;-3.87;53.04
42671;BME280;28283;55.426;37.756;2023-02-28T23:09:36;98595.44;;;-4.02;52.92
42671;BME280;28283;55.426;37.756;2023-02-28T23:14:37;98588.09;;;-4.08;53.42
42671;BME280;28283;55.426;37.756;2023-02-28T23:19:38;98593.16;;;-3.95;53.09
42671;BME280;28283;55.426;37.756;2023-02-28T23:24:38;98538.91;;;-4.48;53.75
42671;BME280;28283;55.426;37.756;2023-02-28T23:29:39;98603.91;;;-4.52;54.84
42671;BME280;28283;55.426;37.756;2023-02-28T23:34:40;98564.56;;;-4.52;54.87
42671;BME280;28283;55.426;37.756;2023-02-28T23:39:40;98593.25;;;-4.39;54.84
42671;BME280;28283;55.426;37.756;2023-02-28T23:44:41;98581.34;;;-4.43;55.15
42671;BME280;28283;55.426;37.756;2023-02-28T23:49:42;98569.56;;;-4.60;54.25
42671;BME280;28283;55.426;37.756;2023-02-28T23:54:42;98560.88;;;-4.28;54.13
42671;BME280;28283;55.426;37.756;2023-02-28T23:59:43;98552.56;;;-4.66;54.10
